Latest Weather Observations for Smithton

IDT60801

Issued at 10:31 am EST Wednesday 29 July 2015 (issued every 30 minutes, with the page automatically refreshed every 10 minutes)

About weather observations | Map of weather stations | Latest weather observations for TAS | Other Formats
Station Details ID: 091292 Name: SMITHTON AERODROME Lat: -40.83 Lon: 145.08 Height: 7.5 m
Data from the previous 72 hours. | See also: Recent months at Smithton
Date/Time
EST
Temp
°C
App
Temp
°C
Dew
Point
Rel
Hum
%
Delta-T
°C
Wind Press
QNH
hPa
Press
MSL
hPa
Rain
since 9 am
mm
Dir
 
Spd
km/h
Gust
km/h
Spd
kts
Gust
kts
29/10:30am 10.8 9.0 10.8 100 0.0 NNW 11 15 6 8 1029.5 - 0.0
29/10:00am 9.6 9.2 9.6 100 0.0 SW 2 7 1 4 1029.7 - 0.0
29/09:30am 8.3 7.9 8.3 100 0.0 CALM 0 0 0 0 1029.8 - 0.0
29/09:00am 6.7 5.9 6.7 100 0.0 CALM 0 0 0 0 1029.9 1029.9 1.8
29/08:30am 4.2 2.5 4.2 100 0.0 SW 2 7 1 4 1030.4 - 1.8
29/08:00am 2.3 -0.5 2.3 100 0.0 SW 6 7 3 4 1030.3 - 1.4
29/07:30am 2.5 0.9 2.5 100 0.0 CALM 0 0 0 0 1029.9 - 1.4
29/07:00am 2.7 0.8 2.7 100 0.0 SW 2 6 1 3 1030.2 - 1.4
29/06:30am 2.4 0.8 2.4 100 0.0 CALM 0 0 0 0 1030.0 - 1.4
29/06:00am 3.3 1.9 3.3 100 0.0 CALM 0 0 0 0 1029.9 1029.9 1.4
29/05:30am 3.2 1.0 3.2 100 0.0 SW 4 7 2 4 1029.9 - 1.4
29/05:00am 3.6 2.2 3.6 100 0.0 CALM 0 0 0 0 1029.6 - 1.4
29/04:30am 2.8 0.5 2.8 100 0.0 SW 4 6 2 3 1029.8 - 1.4
29/04:00am 3.3 0.5 3.3 100 0.0 SW 7 9 4 5 1030.0 - 1.4
29/03:30am 2.8 1.3 2.8 100 0.0 CALM 0 0 0 0 1029.8 - 1.4
29/03:00am 3.2 1.7 3.2 100 0.0 CALM 0 0 0 0 1030.1 1030.1 1.4
29/02:30am 3.6 2.2 3.6 100 0.0 CALM 0 0 0 0 1030.4 - 1.4
29/02:00am 4.7 2.8 4.7 100 0.0 NW 4 7 2 4 1030.6 - 1.4
29/01:30am 4.8 3.6 4.8 100 0.0 CALM 0 0 0 0 1030.4 - 1.4
29/01:00am 5.4 4.0 5.4 100 0.0 NW 2 7 1 4 1030.5 - 1.4
29/12:30am 6.1 3.5 6.1 100 0.0 NW 9 11 5 6 1030.9 - 1.4
29/12:00am 5.8 4.8 5.8 100 0.0 CALM 0 0 0 0 1031.1 1031.1 1.4
 
Date/Time
EST
Temp
°C
App
Temp
°C
Dew
Point
Rel
Hum
%
Delta-T
°C
Wind Press
QNH
hPa
Press
MSL
hPa
Rain
since 9 am
mm
Dir
 
Spd
km/h
Gust
km/h
Spd
kts
Gust
kts
28/11:30pm 6.4 4.2 6.4 100 0.0 SW 7 13 4 7 1031.3 - 1.2
28/11:00pm 6.2 4.6 6.2 100 0.0 W 4 6 2 3 1031.0 - 1.2
28/10:30pm 6.3 4.1 6.3 100 0.0 W 7 9 4 5 1031.1 - 1.2
28/10:00pm 6.5 3.6 6.5 100 0.0 WSW 11 13 6 7 1031.2 - 1.2
28/09:30pm 7.3 5.5 7.3 100 0.0 WNW 6 7 3 4 1031.1 - 1.2
28/09:00pm 7.1 4.3 7.1 100 0.0 WNW 11 13 6 7 1031.1 1031.1 1.2
28/08:30pm 7.3 4.6 7.2 99 0.0 W 11 13 6 7 1031.1 - 1.2
28/08:00pm 7.1 4.3 7.0 99 0.0 W 11 13 6 7 1030.9 - 1.2
28/07:30pm 8.5 5.7 8.4 99 0.0 W 13 15 7 8 1030.9 - 1.2
28/07:00pm 9.1 6.0 9.0 99 0.0 W 15 20 8 11 1030.8 - 1.2
28/06:30pm 9.4 6.0 9.3 99 0.0 WSW 17 20 9 11 1030.7 - 1.2
28/06:00pm 9.5 5.8 9.4 99 0.0 W 19 24 10 13 1030.5 1030.5 1.2
28/05:30pm 9.6 6.2 9.0 96 0.3 W 17 22 9 12 1030.1 - 1.2
28/05:00pm 10.5 6.6 9.6 94 0.5 W 20 26 11 14 1030.1 - 1.2
28/04:30pm 11.3 6.7 9.6 89 0.9 W 24 32 13 17 1030.0 - 1.2
28/04:00pm 11.9 8.3 10.5 91 0.7 WSW 20 28 11 15 1029.8 - 1.2
28/03:30pm 11.5 7.4 10.2 92 0.7 W 22 32 12 17 1029.8 - 1.2
28/03:00pm 12.1 9.0 11.5 96 0.3 SW 19 33 10 18 1029.7 1029.7 1.2
28/02:30pm 12.0 7.5 11.4 96 0.3 W 26 32 14 17 1029.4 - 1.2
28/02:00pm 11.5 6.9 11.2 98 0.2 W 26 35 14 19 1029.6 - 1.2
28/01:30pm 11.3 6.0 11.1 99 0.1 WSW 30 39 16 21 1029.6 - 1.2
28/01:00pm 11.3 6.3 10.8 97 0.3 WSW 28 41 15 22 1029.8 - 0.6
28/12:30pm 12.0 8.3 11.4 96 0.3 W 22 32 12 17 1029.9 - 0.4
28/12:00pm 11.3 6.7 11.1 99 0.1 WSW 26 35 14 19 1030.2 1030.2 0.4
28/11:30am 11.9 7.4 11.3 96 0.3 WSW 26 39 14 21 1030.5 - 0.2
28/11:00am 11.9 8.1 11.3 96 0.3 W 22 33 12 18 1030.5 - 0.2
28/10:30am 11.5 7.4 11.3 99 0.1 W 24 37 13 20 1030.5 - 0.0
28/10:00am 10.9 6.6 10.7 99 0.1 WSW 24 33 13 18 1030.3 - 0.0
28/09:30am 10.7 6.8 10.7 100 0.0 W 22 30 12 16 1029.9 - 0.0
28/09:00am 9.6 4.6 9.5 99 0.0 W 26 35 14 19 1029.9 1029.9 4.2
28/08:30am 9.0 5.2 8.9 99 0.0 WSW 19 24 10 13 1029.7 - 4.2
28/08:00am 8.3 4.7 8.3 100 0.0 W 17 24 9 13 1029.4 - 4.2
28/07:30am 7.6 4.2 7.5 99 0.0 W 15 19 8 10 1029.0 - 4.2
28/07:00am 8.2 4.2 8.2 100 0.0 WSW 19 22 10 12 1028.6 - 4.2
28/06:30am 8.2 4.2 8.2 100 0.0 WSW 19 24 10 13 1028.2 - 4.2
28/06:00am 8.2 4.2 8.1 99 0.0 WSW 19 24 10 13 1028.0 1028.0 4.2
28/05:30am 8.7 3.8 8.6 99 0.0 WSW 24 30 13 16 1027.7 - 4.2
28/05:00am 8.5 4.3 8.4 99 0.0 WSW 20 26 11 14 1027.5 - 4.0
28/04:30am 9.0 3.4 8.9 99 0.0 WSW 28 35 15 19 1027.3 - 4.0
28/04:00am 9.3 3.8 9.2 99 0.0 WSW 28 43 15 23 1027.2 - 3.6
28/03:30am 9.2 4.1 9.1 99 0.0 W 26 39 14 21 1027.2 - 3.6
28/03:00am 8.9 4.8 8.8 99 0.0 WSW 20 28 11 15 1027.0 1027.0 3.6
28/02:30am 9.4 4.7 9.3 99 0.0 W 24 32 13 17 1027.1 - 3.6
28/02:00am 9.4 4.7 9.4 100 0.0 WSW 24 33 13 18 1027.0 - 3.4
28/01:30am 9.0 5.2 9.0 100 0.0 W 19 24 10 13 1026.6 - 3.2
28/01:00am 8.1 4.8 8.0 99 0.0 W 15 19 8 10 1026.4 - 3.0
28/12:30am 8.5 4.9 8.4 99 0.0 WSW 17 20 9 11 1026.4 - 3.0
28/12:00am 7.4 4.7 7.3 99 0.0 SW 11 13 6 7 1026.3 1026.3 3.0
 
Date/Time
EST
Temp
°C
App
Temp
°C
Dew
Point
Rel
Hum
%
Delta-T
°C
Wind Press
QNH
hPa
Press
MSL
hPa
Rain
since 9 am
mm
Dir
 
Spd
km/h
Gust
km/h
Spd
kts
Gust
kts
27/11:30pm 8.5 4.9 8.4 99 0.0 SSW 17 20 9 11 1026.2 - 3.0
27/11:00pm 9.1 5.3 9.0 99 0.0 SW 19 26 10 14 1026.0 - 3.0
27/10:30pm 9.3 5.3 9.2 99 0.0 SW 20 28 11 15 1026.0 - 3.0
27/10:00pm 9.0 5.2 8.9 99 0.0 WSW 19 24 10 13 1025.7 - 3.0
27/09:30pm 9.3 4.6 9.2 99 0.0 WSW 24 32 13 17 1025.6 - 3.0
27/09:00pm 9.5 5.2 9.4 99 0.0 WSW 22 30 12 16 1025.3 1025.3 3.0
27/08:30pm 9.6 4.6 9.5 99 0.0 WSW 26 37 14 20 1025.0 - 3.0
27/08:00pm 9.8 6.0 9.8 100 0.0 WSW 20 28 11 15 1024.9 - 3.0
27/07:30pm 9.8 5.6 9.8 100 0.0 WSW 22 30 12 16 1024.5 - 3.0
27/07:00pm 9.9 5.4 9.9 100 0.0 W 24 35 13 19 1024.2 - 3.0
27/06:30pm 9.7 6.1 9.7 100 0.0 W 19 28 10 15 1024.1 - 2.6
27/06:00pm 9.3 5.5 9.2 99 0.0 W 19 24 10 13 1024.0 1024.0 2.6
27/05:30pm 9.4 4.3 9.1 98 0.1 WSW 26 37 14 20 1023.8 - 2.4
27/05:00pm 9.9 4.5 8.2 89 0.8 WSW 26 32 14 17 1023.4 - 1.6
27/04:30pm 10.5 5.8 9.3 92 0.6 SW 24 35 13 19 1023.2 - 1.6
27/04:00pm 10.2 5.8 8.8 91 0.7 SW 22 30 12 16 1023.1 - 1.6
27/03:30pm 10.6 4.5 8.4 86 1.1 WSW 30 39 16 21 1022.9 - 1.6
27/03:00pm 11.9 6.2 8.4 79 1.7 WSW 28 41 15 22 1022.4 1022.4 1.4
27/02:30pm 10.8 5.6 8.9 88 0.9 SW 26 33 14 18 1022.3 - 1.4
27/02:00pm 12.7 6.5 9.3 80 1.7 WSW 32 46 17 25 1021.9 - 1.4
27/01:30pm 11.4 5.5 9.0 85 1.2 WSW 30 39 16 21 1022.0 - 1.4
27/01:00pm 10.0 3.0 8.4 90 0.8 WSW 35 50 19 27 1022.0 - 1.4
27/12:45pm 10.7 4.0 8.1 84 1.3 WSW 33 54 18 29 1022.1 - 1.2
27/12:30pm 10.3 4.7 8.7 90 0.8 W 28 43 15 23 1021.9 - 1.2
27/12:13pm 11.0 5.2 9.3 89 0.8 WSW 30 48 16 26 1021.9 - 1.2
27/12:00pm 10.4 4.8 8.8 90 0.8 WSW 28 35 15 19 1022.0 1022.0 1.2
27/11:34am 10.1 3.5 8.4 89 0.8 WSW 33 56 18 30 1022.3 - 1.2
27/11:30am 11.2 5.0 9.5 89 0.9 WSW 32 43 17 23 1022.2 - 1.0
27/11:03am 9.7 3.2 8.1 90 0.8 WSW 32 56 17 30 1022.3 - 0.6
27/11:00am 10.6 5.1 9.0 90 0.8 WSW 28 41 15 22 1022.4 - 0.2
27/10:43am 9.5 2.2 7.4 87 1.0 WSW 35 54 19 29 1022.0 - 0.2
27/10:30am 10.0 2.7 7.4 84 1.2 WSW 35 46 19 25 1021.9 - 0.2
27/10:18am 10.1 3.5 7.9 86 1.1 W 32 52 17 28 1022.0 - 0.2
27/10:00am 9.8 3.2 7.9 88 0.9 WSW 32 44 17 24 1021.7 - 0.2
27/09:30am 9.4 3.1 7.3 87 1.0 W 30 39 16 21 1021.6 - 0.0
27/09:15am 9.2 3.2 7.0 86 1.0 W 28 48 15 26 1021.2 - 0.0
27/09:00am 8.5 3.7 7.3 92 0.6 W 22 30 12 16 1021.2 1021.2 7.0
27/08:30am 8.5 3.6 6.8 89 0.8 WSW 22 28 12 15 1021.0 - 6.8
27/08:00am 7.5 1.9 5.5 87 0.9 W 24 30 13 16 1020.6 - 6.8
27/07:30am 7.0 2.6 5.0 87 0.9 W 17 19 9 10 1020.4 - 6.6
27/07:00am 7.0 1.3 4.7 85 1.0 WSW 24 30 13 16 1020.0 - 6.6
27/06:30am 7.1 1.0 4.8 85 1.0 WSW 26 35 14 19 1019.4 - 6.6
27/06:00am 6.6 1.7 4.9 89 0.7 WSW 20 26 11 14 1019.1 1019.1 6.6
27/05:30am 6.6 0.8 4.4 86 0.9 WSW 24 33 13 18 1018.8 - 6.6
27/05:00am 6.5 -0.5 4.3 86 0.9 WSW 30 41 16 22 1018.3 - 6.6
27/04:43am 6.9 0.0 4.6 85 1.0 WSW 30 48 16 26 1018.2 - 6.6
27/04:30am 6.7 -0.4 3.7 81 1.3 WSW 30 39 16 21 1018.0 - 6.6
27/04:00am 6.4 -1.2 3.7 83 1.1 SW 33 48 18 26 1017.5 - 6.6
27/03:30am 5.9 -0.3 4.2 89 0.7 SW 26 35 14 19 1017.3 - 6.6
27/03:00am 6.1 -2.2 4.1 87 0.9 WSW 37 48 20 26 1017.1 1017.1 6.6
27/02:30am 5.7 -2.3 3.7 87 0.8 SW 35 50 19 27 1016.7 - 6.6
27/02:10am 5.8 -0.8 4.4 91 0.6 WSW 28 46 15 25 1016.6 - 6.6
27/02:00am 5.7 0.2 3.9 88 0.8 SW 22 32 12 17 1016.6 - 6.6
27/01:30am 4.8 -0.5 3.0 88 0.7 WSW 20 28 11 15 1016.0 - 6.6
27/01:00am 5.7 -1.5 3.0 83 1.1 SW 30 48 16 26 1016.1 - 6.4
27/12:30am 5.5 -2.2 2.3 80 1.3 SW 32 44 17 24 1015.3 - 6.4
27/12:08am 6.1 -2.1 2.6 78 1.4 SW 35 61 19 33 1015.5 - 6.4
27/12:00am 5.7 -1.2 2.7 81 1.2 WSW 28 37 15 20 1015.1 1015.1 6.4
 
Date/Time
EST
Temp
°C
App
Temp
°C
Dew
Point
Rel
Hum
%
Delta-T
°C
Wind Press
QNH
hPa
Press
MSL
hPa
Rain
since 9 am
mm
Dir
 
Spd
km/h
Gust
km/h
Spd
kts
Gust
kts
26/11:30pm 5.5 -0.7 2.2 79 1.3 WSW 24 35 13 19 1015.1 - 6.4
26/11:00pm 5.3 -1.2 2.7 83 1.1 WSW 26 35 14 19 1014.2 - 6.4
26/10:43pm 5.9 -2.3 2.9 81 1.2 W 35 50 19 27 1014.2 - 6.4
26/10:31pm 6.3 -2.3 2.4 76 1.6 SW 37 57 20 31 1014.1 - 6.4
26/10:30pm 6.3 -2.3 2.4 76 1.6 SW 37 50 20 27 1014.1 - 6.4
26/10:03pm 6.7 -3.3 2.4 74 1.8 WSW 44 65 24 35 1013.8 - 6.4
26/10:00pm 6.9 -5.0 2.2 72 1.9 WSW 54 65 29 35 1013.6 - 6.4
26/09:38pm 6.0 -1.3 2.6 79 1.4 W 30 48 16 26 1013.1 - 6.4
26/09:30pm 6.4 -1.4 2.7 77 1.5 W 33 48 18 26 1013.1 - 6.4
26/09:00pm 6.3 -1.3 3.1 80 1.3 WSW 32 43 17 23 1012.3 1012.3 6.4
26/08:33pm 6.9 -1.1 3.9 81 1.3 WSW 35 54 19 29 1012.1 - 6.4
26/08:30pm 6.7 -0.9 3.9 82 1.2 WSW 33 46 18 25 1011.9 - 6.4
26/08:21pm 6.6 -2.1 3.9 83 1.2 WSW 39 57 21 31 1011.6 - 6.4
26/08:00pm 6.9 -1.8 3.9 81 1.3 SW 39 54 21 29 1011.0 - 6.4
26/07:30pm 7.5 -1.7 3.6 76 1.7 WSW 41 59 22 32 1010.2 - 6.4
26/07:03pm 7.9 -1.6 3.8 75 1.8 WSW 43 65 23 35 1009.2 - 6.4
26/07:00pm 7.8 -1.7 3.8 76 1.7 WSW 43 57 23 31 1009.5 - 6.4
26/06:35pm 7.6 -2.5 3.8 77 1.6 WSW 46 67 25 36 1008.5 - 6.4
26/06:30pm 7.4 -2.5 4.7 83 1.2 WSW 46 61 25 33 1008.5 - 6.4
26/06:02pm 7.2 -4.5 5.2 87 0.9 WSW 56 83 30 45 1007.8 - 6.2
26/06:00pm 7.1 -4.3 4.9 86 1.0 WSW 54 70 29 38 1008.0 1008.0 6.2
26/05:39pm 7.8 -1.4 5.4 85 1.1 WSW 43 61 23 33 1006.8 - 6.2
26/05:30pm 7.7 -1.7 5.2 84 1.1 WSW 44 59 24 32 1006.6 - 6.2
26/05:00pm 7.7 -2.3 6.2 90 0.7 WSW 48 69 26 37 1005.6 - 6.0
26/04:30pm 7.6 -1.4 6.5 93 0.5 WSW 43 65 23 35 1004.6 - 5.8
26/04:00pm 7.3 -1.3 6.7 96 0.3 WSW 41 70 22 38 1004.2 - 5.4
26/03:30pm 7.1 -2.9 6.0 93 0.5 W 48 70 26 38 1003.3 - 5.0
26/03:10pm 6.5 -2.7 6.2 98 0.1 W 44 67 24 36 1003.2 - 4.8
26/03:00pm 6.5 -2.8 5.9 96 0.3 W 44 59 24 32 1003.4 1003.4 4.2
26/02:34pm 6.6 -3.4 6.2 97 0.2 W 48 67 26 36 1002.5 - 3.4
26/02:30pm 6.7 -3.7 6.1 96 0.3 W 50 67 27 36 1002.8 - 3.2
26/02:01pm 7.6 -2.8 6.2 91 0.6 W 50 69 27 37 1002.0 - 2.4
26/02:00pm 7.6 -2.7 6.4 92 0.5 W 50 63 27 34 1002.1 - 2.4
26/01:49pm 8.4 -2.6 4.8 78 1.6 W 52 83 28 45 1001.8 - 1.8
26/01:30pm 8.0 -1.6 6.3 89 0.8 W 46 65 25 35 1002.3 - 1.8
26/01:00pm 6.4 -5.2 4.1 85 1.0 W 54 78 29 42 1002.6 - 1.8
26/12:50pm 8.1 -2.3 4.3 77 1.7 W 48 78 26 42 1002.5 - 1.6
26/12:40pm 7.7 -0.1 4.8 82 1.3 W 35 54 19 29 1002.4 - 1.6
26/12:30pm 6.5 -1.0 4.7 88 0.8 W 33 50 18 27 1002.8 - 1.6
26/12:21pm 6.4 -2.3 4.2 86 0.9 W 39 85 21 46 1003.1 - 1.6
26/12:08pm 8.6 -4.5 5.0 78 1.6 W 63 83 34 45 1002.6 - 1.4
26/12:04pm 9.2 -5.0 5.0 75 1.9 W 69 83 37 45 1002.3 - 1.4
26/12:01pm 10.4 1.4 6.4 76 1.9 W 43 65 23 35 1002.4 - 1.4
26/12:00pm 10.0 1.2 5.6 74 2.0 W 41 57 22 31 1002.4 1002.4 1.4
26/11:41am 8.0 0.0 3.7 74 1.8 W 35 59 19 32 1002.6 - 1.4
26/11:30am 7.7 0.0 5.2 84 1.1 W 35 50 19 27 1002.8 - 1.4
26/11:03am 7.1 -0.7 4.9 86 1.0 W 35 54 19 29 1003.0 - 1.2
26/11:00am 7.2 -1.3 5.0 86 1.0 W 39 54 21 29 1003.1 - 1.0

Other Formats:

Comma delimited format used in spreadsheet applications
http://www.bom.gov.au/fwo/IDT60801/IDT60801.94953.axf

JavaScript Object Notation format (JSON) in row-major order
http://www.bom.gov.au/fwo/IDT60801/IDT60801.94953.json